sensor_id;sensor_type;location;lat;lon;timestamp;P1;durP1;ratioP1;P2;durP2;ratioP2
18140;SDS011;9196;49.194;12.526;2024-03-23T00:53:59;18.13;;;9.10;;
18140;SDS011;9196;49.194;12.526;2024-03-23T00:56:26;10.60;;;8.60;;
18140;SDS011;9196;49.194;12.526;2024-03-23T00:58:51;11.50;;;8.70;;
18140;SDS011;9196;49.194;12.526;2024-03-23T01:01:18;17.60;;;9.40;;
18140;SDS011;9196;49.194;12.526;2024-03-23T01:03:44;9.33;;;8.47;;
18140;SDS011;9196;49.194;12.526;2024-03-23T01:06:11;8.67;;;7.77;;
18140;SDS011;9196;49.194;12.526;2024-03-23T01:08:36;11.00;;;8.30;;
18140;SDS011;9196;49.194;12.526;2024-03-23T01:11:05;8.93;;;8.13;;
18140;SDS011;9196;49.194;12.526;2024-03-23T01:13:30;9.37;;;7.20;;
18140;SDS011;9196;49.194;12.526;2024-03-23T01:15:57;7.90;;;7.20;;
18140;SDS011;9196;49.194;12.526;2024-03-23T01:18:23;10.20;;;7.20;;
18140;SDS011;9196;49.194;12.526;2024-03-23T01:20:51;10.73;;;8.83;;
18140;SDS011;9196;49.194;12.526;2024-03-23T01:23:17;11.13;;;7.73;;
18140;SDS011;9196;49.194;12.526;2024-03-23T01:25:44;8.47;;;7.67;;
18140;SDS011;9196;49.194;12.526;2024-03-23T01:28:18;12.50;;;7.70;;
18140;SDS011;9196;49.194;12.526;2024-03-23T01:30:45;9.20;;;7.63;;
18140;SDS011;9196;49.194;12.526;2024-03-23T01:33:10;7.43;;;6.63;;
18140;SDS011;9196;49.194;12.526;2024-03-23T01:35:37;11.30;;;7.30;;
18140;SDS011;9196;49.194;12.526;2024-03-23T01:38:03;10.53;;;7.57;;
18140;SDS011;9196;49.194;12.526;2024-03-23T01:40:30;12.70;;;8.70;;
18140;SDS011;9196;49.194;12.526;2024-03-23T01:42:57;17.25;;;8.20;;
18140;SDS011;9196;49.194;12.526;2024-03-23T01:45:26;8.60;;;7.57;;
18140;SDS011;9196;49.194;12.526;2024-03-23T01:47:52;8.33;;;7.30;;
18140;SDS011;9196;49.194;12.526;2024-03-23T01:50:19;8.87;;;7.30;;
18140;SDS011;9196;49.194;12.526;2024-03-23T01:52:45;10.77;;;7.90;;
18140;SDS011;9196;49.194;12.526;2024-03-23T01:55:12;9.00;;;7.57;;
18140;SDS011;9196;49.194;12.526;2024-03-23T01:57:38;8.13;;;7.40;;
18140;SDS011;9196;49.194;12.526;2024-03-23T02:00:05;8.27;;;7.47;;
18140;SDS011;9196;49.194;12.526;2024-03-23T02:02:33;8.17;;;7.20;;
18140;SDS011;9196;49.194;12.526;2024-03-23T02:05:00;7.18;;;6.57;;
18140;SDS011;9196;49.194;12.526;2024-03-23T02:07:26;10.00;;;7.60;;
18140;SDS011;9196;49.194;12.526;2024-03-23T02:09:53;16.37;;;7.60;;
18140;SDS011;9196;49.194;12.526;2024-03-23T02:12:19;16.73;;;7.70;;
18140;SDS011;9196;49.194;12.526;2024-03-23T02:14:47;7.40;;;6.60;;
18140;SDS011;9196;49.194;12.526;2024-03-23T02:17:13;7.60;;;6.03;;
18140;SDS011;9196;49.194;12.526;2024-03-23T02:19:41;8.60;;;7.77;;
18140;SDS011;9196;49.194;12.526;2024-03-23T02:22:07;7.97;;;7.17;;
18140;SDS011;9196;49.194;12.526;2024-03-23T02:24:36;9.60;;;7.43;;
18140;SDS011;9196;49.194;12.526;2024-03-23T02:27:03;8.23;;;7.15;;
18140;SDS011;9196;49.194;12.526;2024-03-23T02:29:30;12.20;;;7.10;;
18140;SDS011;9196;49.194;12.526;2024-03-23T02:31:55;7.20;;;6.40;;
18140;SDS011;9196;49.194;12.526;2024-03-23T02:34:23;7.70;;;6.93;;
18140;SDS011;9196;49.194;12.526;2024-03-23T02:36:49;7.33;;;6.50;;
18140;SDS011;9196;49.194;12.526;2024-03-23T02:39:16;8.02;;;6.40;;
18140;SDS011;9196;49.194;12.526;2024-03-23T02:41:43;12.17;;;7.13;;
18140;SDS011;9196;49.194;12.526;2024-03-23T02:44:10;7.70;;;6.95;;
18140;SDS011;9196;49.194;12.526;2024-03-23T02:46:36;9.70;;;8.13;;
18140;SDS011;9196;49.194;12.526;2024-03-23T02:49:03;7.85;;;7.07;;
18140;SDS011;9196;49.194;12.526;2024-03-23T02:51:29;10.53;;;7.27;;
18140;SDS011;9196;49.194;12.526;2024-03-23T02:53:56;7.35;;;6.65;;
18140;SDS011;9196;49.194;12.526;2024-03-23T02:56:22;11.60;;;7.47;;
18140;SDS011;9196;49.194;12.526;2024-03-23T02:58:50;7.80;;;7.10;;
18140;SDS011;9196;49.194;12.526;2024-03-23T03:01:16;9.30;;;7.57;;
18140;SDS011;9196;49.194;12.526;2024-03-23T03:03:43;8.10;;;7.30;;
18140;SDS011;9196;49.194;12.526;2024-03-23T03:06:09;8.38;;;7.30;;
18140;SDS011;9196;49.194;12.526;2024-03-23T03:08:36;8.15;;;7.20;;
18140;SDS011;9196;49.194;12.526;2024-03-23T03:11:02;8.83;;;6.50;;
18140;SDS011;9196;49.194;12.526;2024-03-23T03:13:29;7.72;;;6.80;;
18140;SDS011;9196;49.194;12.526;2024-03-23T03:15:56;8.93;;;7.33;;
18140;SDS011;9196;49.194;12.526;2024-03-23T03:18:23;7.80;;;6.65;;
18140;SDS011;9196;49.194;12.526;2024-03-23T03:20:49;10.87;;;8.43;;
18140;SDS011;9196;49.194;12.526;2024-03-23T03:23:16;11.75;;;7.85;;
18140;SDS011;9196;49.194;12.526;2024-03-23T03:25:43;8.00;;;7.18;;
18140;SDS011;9196;49.194;12.526;2024-03-23T03:28:09;9.48;;;8.07;;
18140;SDS011;9196;49.194;12.526;2024-03-23T03:30:35;9.93;;;7.40;;
18140;SDS011;9196;49.194;12.526;2024-03-23T03:33:03;10.52;;;6.07;;
18140;SDS011;9196;49.194;12.526;2024-03-23T03:35:29;7.97;;;7.15;;
18140;SDS011;9196;49.194;12.526;2024-03-23T03:37:56;10.13;;;7.63;;
18140;SDS011;9196;49.194;12.526;2024-03-23T03:40:22;7.00;;;6.30;;
18140;SDS011;9196;49.194;12.526;2024-03-23T03:42:49;8.23;;;7.40;;
18140;SDS011;9196;49.194;12.526;2024-03-23T03:45:16;8.20;;;7.40;;
18140;SDS011;9196;49.194;12.526;2024-03-23T03:47:42;7.07;;;6.37;;
18140;SDS011;9196;49.194;12.526;2024-03-23T03:50:10;10.52;;;7.78;;
18140;SDS011;9196;49.194;12.526;2024-03-23T03:52:36;8.35;;;7.45;;
18140;SDS011;9196;49.194;12.526;2024-03-23T03:55:03;9.63;;;8.63;;
18140;SDS011;9196;49.194;12.526;2024-03-23T03:57:36;11.90;;;9.07;;
18140;SDS011;9196;49.194;12.526;2024-03-23T04:00:03;10.13;;;8.75;;
18140;SDS011;9196;49.194;12.526;2024-03-23T04:02:30;10.30;;;9.18;;
18140;SDS011;9196;49.194;12.526;2024-03-23T04:04:56;10.90;;;9.77;;
18140;SDS011;9196;49.194;12.526;2024-03-23T04:07:24;10.70;;;8.40;;
18140;SDS011;9196;49.194;12.526;2024-03-23T04:09:51;12.27;;;9.60;;
18140;SDS011;9196;49.194;12.526;2024-03-23T04:12:16;9.33;;;8.43;;
18140;SDS011;9196;49.194;12.526;2024-03-23T04:14:43;9.48;;;8.48;;
18140;SDS011;9196;49.194;12.526;2024-03-23T04:17:09;9.70;;;8.70;;
18140;SDS011;9196;49.194;12.526;2024-03-23T04:19:36;8.20;;;7.30;;
18140;SDS011;9196;49.194;12.526;2024-03-23T04:22:01;10.90;;;7.97;;
18140;SDS011;9196;49.194;12.526;2024-03-23T04:24:30;11.82;;;7.95;;
18140;SDS011;9196;49.194;12.526;2024-03-23T04:26:55;9.63;;;7.05;;
18140;SDS011;9196;49.194;12.526;2024-03-23T04:29:22;8.88;;;7.85;;
18140;SDS011;9196;49.194;12.526;2024-03-23T04:31:48;7.70;;;7.00;;
18140;SDS011;9196;49.194;12.526;2024-03-23T04:34:15;7.97;;;7.13;;
18140;SDS011;9196;49.194;12.526;2024-03-23T04:36:41;10.43;;;8.10;;
18140;SDS011;9196;49.194;12.526;2024-03-23T04:39:07;11.95;;;9.80;;
18140;SDS011;9196;49.194;12.526;2024-03-23T04:41:36;19.92;;;11.00;;
18140;SDS011;9196;49.194;12.526;2024-03-23T04:44:03;12.02;;;10.73;;
18140;SDS011;9196;49.194;12.526;2024-03-23T04:46:30;13.48;;;8.98;;
18140;SDS011;9196;49.194;12.526;2024-03-23T04:48:57;11.98;;;9.30;;
18140;SDS011;9196;49.194;12.526;2024-03-23T04:51:24;8.57;;;7.60;;
18140;SDS011;9196;49.194;12.526;2024-03-23T04:53:51;7.95;;;7.20;;
18140;SDS011;9196;49.194;12.526;2024-03-23T04:56:17;7.20;;;6.63;;
18140;SDS011;9196;49.194;12.526;2024-03-23T04:58:45;6.93;;;6.20;;
18140;SDS011;9196;49.194;12.526;2024-03-23T05:01:11;8.68;;;7.25;;
18140;SDS011;9196;49.194;12.526;2024-03-23T05:03:38;7.97;;;7.25;;
18140;SDS011;9196;49.194;12.526;2024-03-23T05:06:04;10.77;;;8.60;;
18140;SDS011;9196;49.194;12.526;2024-03-23T05:08:31;8.95;;;8.05;;
18140;SDS011;9196;49.194;12.526;2024-03-23T05:10:57;9.90;;;7.87;;
18140;SDS011;9196;49.194;12.526;2024-03-23T05:13:24;9.55;;;8.48;;
18140;SDS011;9196;49.194;12.526;2024-03-23T05:15:52;11.03;;;9.93;;
18140;SDS011;9196;49.194;12.526;2024-03-23T05:18:19;12.00;;;9.82;;
18140;SDS011;9196;49.194;12.526;2024-03-23T05:20:45;9.73;;;8.53;;
18140;SDS011;9196;49.194;12.526;2024-03-23T05:23:12;10.07;;;8.43;;
18140;SDS011;9196;49.194;12.526;2024-03-23T05:25:38;16.23;;;10.77;;
18140;SDS011;9196;49.194;12.526;2024-03-23T05:28:05;9.57;;;8.55;;
18140;SDS011;9196;49.194;12.526;2024-03-23T05:30:31;10.40;;;8.77;;
18140;SDS011;9196;49.194;12.526;2024-03-23T05:33:00;10.43;;;8.40;;
18140;SDS011;9196;49.194;12.526;2024-03-23T05:35:25;11.30;;;8.15;;
18140;SDS011;9196;49.194;12.526;2024-03-23T05:37:52;13.17;;;7.73;;
18140;SDS011;9196;49.194;12.526;2024-03-23T05:40:18;8.93;;;8.00;;
18140;SDS011;9196;49.194;12.526;2024-03-23T05:42:45;19.48;;;12.27;;
18140;SDS011;9196;49.194;12.526;2024-03-23T05:45:10;9.43;;;8.50;;
18140;SDS011;9196;49.194;12.526;2024-03-23T05:47:37;9.43;;;8.45;;
18140;SDS011;9196;49.194;12.526;2024-03-23T05:50:05;7.50;;;6.50;;
18140;SDS011;9196;49.194;12.526;2024-03-23T05:52:34;7.10;;;5.88;;
18140;SDS011;9196;49.194;12.526;2024-03-23T05:55:00;7.73;;;6.83;;
18140;SDS011;9196;49.194;12.526;2024-03-23T05:57:27;7.50;;;6.40;;
18140;SDS011;9196;49.194;12.526;2024-03-23T05:59:53;8.60;;;6.37;;
18140;SDS011;9196;49.194;12.526;2024-03-23T06:02:20;6.80;;;6.10;;
18140;SDS011;9196;49.194;12.526;2024-03-23T06:04:46;4.20;;;3.80;;
18140;SDS011;9196;49.194;12.526;2024-03-23T06:07:14;3.70;;;3.40;;
18140;SDS011;9196;49.194;12.526;2024-03-23T06:09:40;6.13;;;4.68;;
18140;SDS011;9196;49.194;12.526;2024-03-23T06:12:07;4.53;;;3.87;;
18140;SDS011;9196;49.194;12.526;2024-03-23T06:14:33;8.00;;;3.80;;
18140;SDS011;9196;49.194;12.526;2024-03-23T06:17:00;3.27;;;2.97;;
18140;SDS011;9196;49.194;12.526;2024-03-23T06:19:26;3.43;;;3.13;;
18140;SDS011;9196;49.194;12.526;2024-03-23T06:21:54;3.03;;;2.83;;
18140;SDS011;9196;49.194;12.526;2024-03-23T06:24:21;4.33;;;2.77;;
18140;SDS011;9196;49.194;12.526;2024-03-23T06:26:49;3.50;;;3.30;;
18140;SDS011;9196;49.194;12.526;2024-03-23T06:29:15;4.37;;;2.60;;
18140;SDS011;9196;49.194;12.526;2024-03-23T06:31:42;12.63;;;3.00;;
18140;SDS011;9196;49.194;12.526;2024-03-23T06:34:08;3.10;;;2.90;;
18140;SDS011;9196;49.194;12.526;2024-03-23T06:36:35;3.10;;;2.27;;
18140;SDS011;9196;49.194;12.526;2024-03-23T06:39:03;2.73;;;2.60;;
18140;SDS011;9196;49.194;12.526;2024-03-23T06:41:31;3.30;;;3.00;;
18140;SDS011;9196;49.194;12.526;2024-03-23T06:43:57;8.93;;;3.23;;
18140;SDS011;9196;49.194;12.526;2024-03-23T06:46:24;4.17;;;2.90;;
18140;SDS011;9196;49.194;12.526;2024-03-23T06:48:50;3.30;;;3.10;;
18140;SDS011;9196;49.194;12.526;2024-03-23T06:51:16;7.60;;;4.23;;
18140;SDS011;9196;49.194;12.526;2024-03-23T06:53:42;3.00;;;2.80;;
18140;SDS011;9196;49.194;12.526;2024-03-23T06:56:09;4.27;;;3.30;;
18140;SDS011;9196;49.194;12.526;2024-03-23T06:58:36;3.00;;;2.80;;
18140;SDS011;9196;49.194;12.526;2024-03-23T07:01:03;2.57;;;2.40;;
18140;SDS011;9196;49.194;12.526;2024-03-23T07:03:29;3.07;;;2.80;;
18140;SDS011;9196;49.194;12.526;2024-03-23T07:05:57;3.53;;;3.10;;
18140;SDS011;9196;49.194;12.526;2024-03-23T07:08:23;3.77;;;3.40;;
18140;SDS011;9196;49.194;12.526;2024-03-23T07:10:50;3.03;;;2.83;;
18140;SDS011;9196;49.194;12.526;2024-03-23T07:13:16;2.80;;;2.60;;
18140;SDS011;9196;49.194;12.526;2024-03-23T07:15:49;3.03;;;2.40;;
18140;SDS011;9196;49.194;12.526;2024-03-23T07:18:16;6.23;;;3.17;;
18140;SDS011;9196;49.194;12.526;2024-03-23T07:20:51;4.27;;;3.07;;
18140;SDS011;9196;49.194;12.526;2024-03-23T07:23:17;2.90;;;2.40;;
18140;SDS011;9196;49.194;12.526;2024-03-23T07:25:44;3.00;;;2.80;;
18140;SDS011;9196;49.194;12.526;2024-03-23T07:28:10;2.83;;;2.63;;
18140;SDS011;9196;49.194;12.526;2024-03-23T07:30:36;3.07;;;2.87;;
18140;SDS011;9196;49.194;12.526;2024-03-23T07:33:04;4.43;;;3.03;;
18140;SDS011;9196;49.194;12.526;2024-03-23T07:35:31;3.43;;;3.23;;
18140;SDS011;9196;49.194;12.526;2024-03-23T07:37:57;3.00;;;2.80;;
18140;SDS011;9196;49.194;12.526;2024-03-23T07:40:25;2.90;;;2.60;;
18140;SDS011;9196;49.194;12.526;2024-03-23T07:42:51;4.77;;;2.70;;
18140;SDS011;9196;49.194;12.526;2024-03-23T07:45:18;3.07;;;2.77;;
18140;SDS011;9196;49.194;12.526;2024-03-23T07:47:43;2.23;;;2.10;;
18140;SDS011;9196;49.194;12.526;2024-03-23T07:50:12;3.23;;;2.73;;
18140;SDS011;9196;49.194;12.526;2024-03-23T07:52:38;4.23;;;3.33;;
18140;SDS011;9196;49.194;12.526;2024-03-23T07:55:05;2.67;;;2.47;;
18140;SDS011;9196;49.194;12.526;2024-03-23T07:57:31;3.17;;;2.97;;
18140;SDS011;9196;49.194;12.526;2024-03-23T07:59:58;4.77;;;2.70;;
18140;SDS011;9196;49.194;12.526;2024-03-23T08:02:24;3.17;;;2.90;;
18140;SDS011;9196;49.194;12.526;2024-03-23T08:04:50;4.30;;;3.23;;
18140;SDS011;9196;49.194;12.526;2024-03-23T08:07:17;6.33;;;4.13;;
18140;SDS011;9196;49.194;12.526;2024-03-23T08:09:44;5.77;;;3.30;;
18140;SDS011;9196;49.194;12.526;2024-03-23T08:12:10;7.50;;;3.60;;
18140;SDS011;9196;49.194;12.526;2024-03-23T08:14:37;7.13;;;3.80;;
18140;SDS011;9196;49.194;12.526;2024-03-23T08:17:03;4.43;;;4.00;;
18140;SDS011;9196;49.194;12.526;2024-03-23T08:19:30;4.77;;;3.20;;
18140;SDS011;9196;49.194;12.526;2024-03-23T08:21:55;8.00;;;5.17;;
18140;SDS011;9196;49.194;12.526;2024-03-23T08:24:24;11.17;;;8.00;;
18140;SDS011;9196;49.194;12.526;2024-03-23T08:26:49;6.20;;;5.60;;
18140;SDS011;9196;49.194;12.526;2024-03-23T08:29:16;5.07;;;4.60;;
18140;SDS011;9196;49.194;12.526;2024-03-23T08:31:42;3.93;;;3.40;;
18140;SDS011;9196;49.194;12.526;2024-03-23T08:34:09;4.03;;;3.73;;
18140;SDS011;9196;49.194;12.526;2024-03-23T08:36:34;4.33;;;3.93;;
18140;SDS011;9196;49.194;12.526;2024-03-23T08:39:01;5.60;;;5.10;;
18140;SDS011;9196;49.194;12.526;2024-03-23T08:41:28;4.07;;;3.77;;
18140;SDS011;9196;49.194;12.526;2024-03-23T08:43:55;4.30;;;4.00;;
18140;SDS011;9196;49.194;12.526;2024-03-23T08:46:21;3.20;;;3.00;;
18140;SDS011;9196;49.194;12.526;2024-03-23T08:48:48;4.35;;;3.95;;
18140;SDS011;9196;49.194;12.526;2024-03-23T08:51:14;4.57;;;4.23;;
18140;SDS011;9196;49.194;12.526;2024-03-23T08:53:42;3.63;;;3.37;;
18140;SDS011;9196;49.194;12.526;2024-03-23T08:56:09;11.57;;;3.93;;
18140;SDS011;9196;49.194;12.526;2024-03-23T08:58:38;3.95;;;3.65;;
18140;SDS011;9196;49.194;12.526;2024-03-23T09:01:07;4.97;;;4.47;;
18140;SDS011;9196;49.194;12.526;2024-03-23T09:03:35;4.40;;;4.10;;
18140;SDS011;9196;49.194;12.526;2024-03-23T09:06:01;4.40;;;4.00;;
18140;SDS011;9196;49.194;12.526;2024-03-23T09:08:29;3.30;;;3.10;;
18140;SDS011;9196;49.194;12.526;2024-03-23T09:10:54;3.97;;;3.67;;
18140;SDS011;9196;49.194;12.526;2024-03-23T09:13:21;7.82;;;4.72;;
18140;SDS011;9196;49.194;12.526;2024-03-23T09:15:49;3.73;;;3.40;;
18140;SDS011;9196;49.194;12.526;2024-03-23T09:18:16;3.55;;;3.28;;
18140;SDS011;9196;49.194;12.526;2024-03-23T09:20:42;3.95;;;3.58;;
18140;SDS011;9196;49.194;12.526;2024-03-23T09:23:09;3.83;;;3.60;;
18140;SDS011;9196;49.194;12.526;2024-03-23T09:25:38;6.27;;;4.00;;
18140;SDS011;9196;49.194;12.526;2024-03-23T09:28:05;4.10;;;3.80;;
18140;SDS011;9196;49.194;12.526;2024-03-23T09:30:33;4.55;;;4.22;;
18140;SDS011;9196;49.194;12.526;2024-03-23T09:33:02;3.80;;;3.50;;
18140;SDS011;9196;49.194;12.526;2024-03-23T09:35:29;4.95;;;4.47;;
18140;SDS011;9196;49.194;12.526;2024-03-23T09:37:55;4.20;;;3.90;;
18140;SDS011;9196;49.194;12.526;2024-03-23T09:40:22;4.73;;;4.23;;
18140;SDS011;9196;49.194;12.526;2024-03-23T09:42:49;4.30;;;3.90;;
18140;SDS011;9196;49.194;12.526;2024-03-23T09:45:16;5.00;;;4.50;;
18140;SDS011;9196;49.194;12.526;2024-03-23T09:47:45;4.38;;;4.07;;
18140;SDS011;9196;49.194;12.526;2024-03-23T09:50:13;5.43;;;4.20;;
18140;SDS011;9196;49.194;12.526;2024-03-23T09:52:40;4.53;;;4.22;;
18140;SDS011;9196;49.194;12.526;2024-03-23T09:55:07;4.15;;;3.85;;
18140;SDS011;9196;49.194;12.526;2024-03-23T09:57:34;4.28;;;3.92;;
18140;SDS011;9196;49.194;12.526;2024-03-23T10:00:00;4.63;;;4.13;;
18140;SDS011;9196;49.194;12.526;2024-03-23T10:02:27;4.00;;;3.55;;
18140;SDS011;9196;49.194;12.526;2024-03-23T10:04:55;4.80;;;4.10;;
18140;SDS011;9196;49.194;12.526;2024-03-23T10:07:25;5.00;;;3.63;;
18140;SDS011;9196;49.194;12.526;2024-03-23T10:09:51;4.45;;;4.15;;
18140;SDS011;9196;49.194;12.526;2024-03-23T10:12:18;5.93;;;5.35;;
18140;SDS011;9196;49.194;12.526;2024-03-23T10:14:44;4.35;;;3.92;;
18140;SDS011;9196;49.194;12.526;2024-03-23T10:17:13;3.70;;;3.40;;
18140;SDS011;9196;49.194;12.526;2024-03-23T10:19:42;2.60;;;2.50;;
18140;SDS011;9196;49.194;12.526;2024-03-23T10:22:10;2.28;;;1.95;;
18140;SDS011;9196;49.194;12.526;2024-03-23T10:24:39;2.03;;;1.93;;
18140;SDS011;9196;49.194;12.526;2024-03-23T10:27:07;1.30;;;1.30;;
18140;SDS011;9196;49.194;12.526;2024-03-23T10:29:33;3.40;;;1.47;;
18140;SDS011;9196;49.194;12.526;2024-03-23T10:32:08;1.43;;;1.43;;
18140;SDS011;9196;49.194;12.526;2024-03-23T10:34:35;1.42;;;1.33;;
18140;SDS011;9196;49.194;12.526;2024-03-23T10:37:03;1.40;;;1.40;;
18140;SDS011;9196;49.194;12.526;2024-03-23T10:39:30;1.17;;;1.10;;
18140;SDS011;9196;49.194;12.526;2024-03-23T10:42:01;1.38;;;1.27;;
18140;SDS011;9196;49.194;12.526;2024-03-23T10:44:28;1.33;;;1.30;;
18140;SDS011;9196;49.194;12.526;2024-03-23T10:46:56;1.20;;;1.20;;
18140;SDS011;9196;49.194;12.526;2024-03-23T10:49:25;1.50;;;1.50;;
18140;SDS011;9196;49.194;12.526;2024-03-23T10:51:54;1.60;;;1.50;;
18140;SDS011;9196;49.194;12.526;2024-03-23T10:54:21;1.17;;;1.17;;
18140;SDS011;9196;49.194;12.526;2024-03-23T10:56:50;1.40;;;1.40;;
18140;SDS011;9196;49.194;12.526;2024-03-23T10:59:21;1.20;;;1.20;;
18140;SDS011;9196;49.194;12.526;2024-03-23T11:01:55;2.05;;;1.95;;
18140;SDS011;9196;49.194;12.526;2024-03-23T11:04:31;1.20;;;1.20;;
18140;SDS011;9196;49.194;12.526;2024-03-23T11:06:59;4.65;;;3.30;;
18140;SDS011;9196;49.194;12.526;2024-03-23T11:09:43;3.47;;;3.15;;
18140;SDS011;9196;49.194;12.526;2024-03-23T11:12:17;1.33;;;1.10;;
18140;SDS011;9196;49.194;12.526;2024-03-23T11:14:52;1.17;;;1.17;;
18140;SDS011;9196;49.194;12.526;2024-03-23T11:17:20;1.30;;;1.30;;
18140;SDS011;9196;49.194;12.526;2024-03-23T11:19:52;1.38;;;1.38;;
18140;SDS011;9196;49.194;12.526;2024-03-23T11:22:42;1.15;;;1.15;;
18140;SDS011;9196;49.194;12.526;2024-03-23T11:25:12;1.30;;;1.30;;
18140;SDS011;9196;49.194;12.526;2024-03-23T11:27:40;1.15;;;1.15;;
18140;SDS011;9196;49.194;12.526;2024-03-23T11:30:14;2.17;;;1.63;;
18140;SDS011;9196;49.194;12.526;2024-03-23T11:32:42;1.10;;;1.10;;
18140;SDS011;9196;49.194;12.526;2024-03-23T11:35:08;2.17;;;0.90;;
18140;SDS011;9196;49.194;12.526;2024-03-23T11:37:38;0.95;;;0.95;;
18140;SDS011;9196;49.194;12.526;2024-03-23T11:40:17;1.43;;;1.33;;
18140;SDS011;9196;49.194;12.526;2024-03-23T11:42:44;1.00;;;1.00;;
18140;SDS011;9196;49.194;12.526;2024-03-23T11:45:10;5.90;;;1.13;;
18140;SDS011;9196;49.194;12.526;2024-03-23T11:47:40;1.55;;;1.05;;
18140;SDS011;9196;49.194;12.526;2024-03-23T11:50:06;1.20;;;1.20;;
18140;SDS011;9196;49.194;12.526;2024-03-23T11:52:33;1.00;;;1.00;;
18140;SDS011;9196;49.194;12.526;2024-03-23T11:55:03;1.25;;;1.25;;
18140;SDS011;9196;49.194;12.526;2024-03-23T11:57:32;0.90;;;0.90;;
18140;SDS011;9196;49.194;12.526;2024-03-23T11:59:59;0.80;;;0.80;;
18140;SDS011;9196;49.194;12.526;2024-03-23T12:02:25;1.05;;;1.05;;
18140;SDS011;9196;49.194;12.526;2024-03-23T12:04:53;0.93;;;0.93;;
18140;SDS011;9196;49.194;12.526;2024-03-23T12:07:20;1.10;;;1.10;;
18140;SDS011;9196;49.194;12.526;2024-03-23T12:09:47;1.00;;;1.00;;
18140;SDS011;9196;49.194;12.526;2024-03-23T12:12:28;1.00;;;1.00;;
18140;SDS011;9196;49.194;12.526;2024-03-23T12:15:00;1.10;;;1.10;;
18140;SDS011;9196;49.194;12.526;2024-03-23T12:17:28;2.15;;;1.15;;
18140;SDS011;9196;49.194;12.526;2024-03-23T12:19:56;0.80;;;0.80;;
18140;SDS011;9196;49.194;12.526;2024-03-23T12:22:23;1.20;;;1.20;;
18140;SDS011;9196;49.194;12.526;2024-03-23T12:24:49;3.17;;;2.17;;
18140;SDS011;9196;49.194;12.526;2024-03-23T12:27:16;1.15;;;1.00;;
18140;SDS011;9196;49.194;12.526;2024-03-23T12:29:42;1.00;;;0.90;;
18140;SDS011;9196;49.194;12.526;2024-03-23T12:32:11;1.00;;;1.00;;
18140;SDS011;9196;49.194;12.526;2024-03-23T12:34:37;1.35;;;1.25;;
18140;SDS011;9196;49.194;12.526;2024-03-23T12:37:05;1.30;;;1.30;;
18140;SDS011;9196;49.194;12.526;2024-03-23T12:39:31;1.13;;;1.13;;
18140;SDS011;9196;49.194;12.526;2024-03-23T12:42:00;1.85;;;1.15;;
18140;SDS011;9196;49.194;12.526;2024-03-23T12:44:26;4.03;;;2.00;;
18140;SDS011;9196;49.194;12.526;2024-03-23T12:46:52;1.45;;;1.25;;
18140;SDS011;9196;49.194;12.526;2024-03-23T12:49:19;2.55;;;1.13;;
18140;SDS011;9196;49.194;12.526;2024-03-23T12:51:47;1.23;;;1.13;;
18140;SDS011;9196;49.194;12.526;2024-03-23T12:54:19;1.80;;;1.60;;
18140;SDS011;9196;49.194;12.526;2024-03-23T12:56:46;2.88;;;1.67;;
18140;SDS011;9196;49.194;12.526;2024-03-23T12:59:12;1.87;;;1.80;;
18140;SDS011;9196;49.194;12.526;2024-03-23T13:01:39;1.20;;;1.20;;
18140;SDS011;9196;49.194;12.526;2024-03-23T13:04:05;1.20;;;1.10;;
18140;SDS011;9196;49.194;12.526;2024-03-23T13:06:32;3.90;;;1.33;;
18140;SDS011;9196;49.194;12.526;2024-03-23T13:08:59;1.83;;;1.70;;
18140;SDS011;9196;49.194;12.526;2024-03-23T13:11:27;1.38;;;1.23;;
18140;SDS011;9196;49.194;12.526;2024-03-23T13:13:53;1.95;;;1.77;;
18140;SDS011;9196;49.194;12.526;2024-03-23T13:16:21;2.35;;;1.30;;
18140;SDS011;9196;49.194;12.526;2024-03-23T13:18:47;1.70;;;1.60;;
18140;SDS011;9196;49.194;12.526;2024-03-23T13:21:13;1.98;;;1.40;;
18140;SDS011;9196;49.194;12.526;2024-03-23T13:23:39;1.90;;;1.23;;
18140;SDS011;9196;49.194;12.526;2024-03-23T13:26:07;3.38;;;1.75;;
18140;SDS011;9196;49.194;12.526;2024-03-23T13:28:34;2.10;;;1.60;;
18140;SDS011;9196;49.194;12.526;2024-03-23T13:31:02;1.77;;;1.67;;
18140;SDS011;9196;49.194;12.526;2024-03-23T13:33:28;1.40;;;1.33;;
18140;SDS011;9196;49.194;12.526;2024-03-23T13:35:57;2.53;;;1.60;;
18140;SDS011;9196;49.194;12.526;2024-03-23T13:38:23;1.42;;;1.30;;
18140;SDS011;9196;49.194;12.526;2024-03-23T13:40:51;1.95;;;1.75;;
18140;SDS011;9196;49.194;12.526;2024-03-23T13:43:17;4.15;;;1.60;;
18140;SDS011;9196;49.194;12.526;2024-03-23T13:45:46;1.40;;;1.30;;
18140;SDS011;9196;49.194;12.526;2024-03-23T13:48:12;2.58;;;2.38;;
18140;SDS011;9196;49.194;12.526;2024-03-23T13:50:39;2.08;;;1.70;;
18140;SDS011;9196;49.194;12.526;2024-03-23T13:53:04;2.90;;;1.80;;
18140;SDS011;9196;49.194;12.526;2024-03-23T13:55:33;5.45;;;1.77;;
18140;SDS011;9196;49.194;12.526;2024-03-23T13:57:59;4.07;;;1.67;;
18140;SDS011;9196;49.194;12.526;2024-03-23T14:00:25;1.75;;;1.50;;
18140;SDS011;9196;49.194;12.526;2024-03-23T14:02:52;4.30;;;1.90;;
18140;SDS011;9196;49.194;12.526;2024-03-23T14:05:19;3.22;;;2.13;;
18140;SDS011;9196;49.194;12.526;2024-03-23T14:07:45;2.87;;;2.37;;
18140;SDS011;9196;49.194;12.526;2024-03-23T14:10:12;6.10;;;3.45;;
18140;SDS011;9196;49.194;12.526;2024-03-23T14:12:38;3.67;;;3.20;;
18140;SDS011;9196;49.194;12.526;2024-03-23T14:15:05;4.17;;;2.60;;
18140;SDS011;9196;49.194;12.526;2024-03-23T14:17:31;2.17;;;1.92;;
18140;SDS011;9196;49.194;12.526;2024-03-23T14:20:00;9.60;;;2.80;;
18140;SDS011;9196;49.194;12.526;2024-03-23T14:22:26;6.83;;;3.10;;
18140;SDS011;9196;49.194;12.526;2024-03-23T14:24:53;2.27;;;2.07;;
18140;SDS011;9196;49.194;12.526;2024-03-23T14:27:19;2.70;;;2.13;;
18140;SDS011;9196;49.194;12.526;2024-03-23T14:29:46;2.50;;;2.30;;
18140;SDS011;9196;49.194;12.526;2024-03-23T14:32:12;2.70;;;1.97;;
18140;SDS011;9196;49.194;12.526;2024-03-23T14:34:39;4.20;;;2.70;;
18140;SDS011;9196;49.194;12.526;2024-03-23T14:37:07;9.93;;;8.87;;
18140;SDS011;9196;49.194;12.526;2024-03-23T14:39:33;3.90;;;3.17;;
18140;SDS011;9196;49.194;12.526;2024-03-23T14:42:00;9.10;;;5.37;;
18140;SDS011;9196;49.194;12.526;2024-03-23T14:44:27;9.10;;;5.40;;
18140;SDS011;9196;49.194;12.526;2024-03-23T14:46:53;12.93;;;7.40;;
18140;SDS011;9196;49.194;12.526;2024-03-23T14:49:21;2.37;;;1.97;;
18140;SDS011;9196;49.194;12.526;2024-03-23T14:51:46;6.43;;;4.20;;
18140;SDS011;9196;49.194;12.526;2024-03-23T14:54:14;4.82;;;2.78;;
18140;SDS011;9196;49.194;12.526;2024-03-23T14:56:40;2.63;;;2.17;;
18140;SDS011;9196;49.194;12.526;2024-03-23T14:59:07;3.22;;;1.80;;
18140;SDS011;9196;49.194;12.526;2024-03-23T15:01:33;3.93;;;2.20;;
18140;SDS011;9196;49.194;12.526;2024-03-23T15:04:00;3.22;;;2.92;;
18140;SDS011;9196;49.194;12.526;2024-03-23T15:06:26;2.83;;;1.70;;
18140;SDS011;9196;49.194;12.526;2024-03-23T15:08:52;2.40;;;2.20;;
18140;SDS011;9196;49.194;12.526;2024-03-23T15:11:20;2.77;;;2.50;;
18140;SDS011;9196;49.194;12.526;2024-03-23T15:13:49;2.10;;;1.90;;
18140;SDS011;9196;49.194;12.526;2024-03-23T15:16:16;2.47;;;1.80;;
18140;SDS011;9196;49.194;12.526;2024-03-23T15:18:45;2.33;;;2.00;;
18140;SDS011;9196;49.194;12.526;2024-03-23T15:21:12;3.80;;;2.33;;
18140;SDS011;9196;49.194;12.526;2024-03-23T15:23:39;1.90;;;1.80;;
18140;SDS011;9196;49.194;12.526;2024-03-23T15:26:08;5.07;;;3.43;;
18140;SDS011;9196;49.194;12.526;2024-03-23T15:28:35;3.00;;;1.87;;
18140;SDS011;9196;49.194;12.526;2024-03-23T15:31:06;1.40;;;1.30;;
18140;SDS011;9196;49.194;12.526;2024-03-23T15:33:34;5.05;;;1.85;;
18140;SDS011;9196;49.194;12.526;2024-03-23T15:36:01;7.65;;;3.47;;
18140;SDS011;9196;49.194;12.526;2024-03-23T15:38:27;6.10;;;2.85;;